Terminal Aerodrome Forecast
Issued by NWS

Current Version | Previous Version | Text Only | Print | Product List | Glossary On
Versions: 1 2 3 4 5 6 7 8 9 10 11 12 13
000
FTUS45 KRIW 040541
TAFPNA
TAF
KPNA 040541Z 0406/0506 29008KT P6SM BKN040
     FM041200 VRB06KT 5SM -SN OVC030
     FM042000 23007KT 3SM -SN OVC020 WS018/27030KT
     FM050200 15008KT 2SM -SN SCT008 OVC015 WS018/27035KT
      AMD LTD TO CLD VIS AND WIND=

USA.gov is the U.S. government's official web portal to all federal, state and local government web resources and services.